Terminal Aerodrome Forecast
Issued by NWS Charleston, WV

Current Version | Previous Version | Graphics & Text | Print | Product List | Glossary On
Versions: 1 2 3 4 5 6 7 8 9 10 11 12 13 14 15 16 17 18 19 20 21 22 23 24 25 26 27 28 29 30 31 32
000
FTUS41 KRLX 291127
TAFCRW
TAF
KCRW 291127Z 2912/3012 00000KT 2SM BR SCT001 OVC005
     FM291400 00000KT 3SM BR BKN012
     FM291600 24004KT P6SM BKN025
     FM291900 24004KT P6SM VCTS BKN040CB
     FM292200 00000KT P6SM BKN050
     FM300300 VRB03KT 4SM BR BKN060
     FM300600 VRB03KT 1SM BR BKN001=

USA.gov is the U.S. government's official web portal to all federal, state and local government web resources and services.